Time,TemperatureF,DewpointF,PressureIn,WindDirection,WindDirectionDegrees,WindSpeedMPH,WindSpeedGustMPH,Humidity,HourlyPrecipIn,Conditions,Clouds,dailyrainin,SoftwareType,DateUTC
2013-06-24 00:01:00,58.5,30.1,31.67,WSW,248,1.1,3.1,34,0.00,,,0.00,WUHU216HW,2013-06-24 06:01:00,
2013-06-24 00:07:00,58.7,30.3,31.67,West,270,0.4,1.6,34,0.00,,,0.00,WUHU216HW,2013-06-24 06:07:00,
2013-06-24 00:12:00,58.5,30.1,31.67,SW,225,0.0,1.6,34,0.00,,,0.00,WUHU216HW,2013-06-24 06:12:00,
2013-06-24 00:17:00,58.5,30.1,31.67,WNW,293,0.2,3.4,34,0.00,,,0.00,WUHU216HW,2013-06-24 06:17:00,
2013-06-24 00:22:00,58.1,29.7,31.67,WSW,248,0.0,3.4,34,0.00,,,0.00,WUHU216HW,2013-06-24 06:22:00,
2013-06-24 00:27:00,58.0,29.5,31.67,WSW,248,0.0,2.0,34,0.00,,,0.00,WUHU216HW,2013-06-24 06:27:00,
2013-06-24 00:32:00,57.8,30.8,31.67,SW,225,0.2,3.4,36,0.00,,,0.00,WUHU216HW,2013-06-24 06:32:00,
2013-06-24 00:37:00,57.6,30.6,31.66,WSW,248,0.7,3.4,36,0.00,,,0.00,WUHU216HW,2013-06-24 06:37:00,
2013-06-24 00:43:00,57.8,30.1,31.66,WSW,248,0.2,2.0,35,0.00,,,0.00,WUHU216HW,2013-06-24 06:43:00,
2013-06-24 00:48:00,57.8,30.1,31.67,SW,225,2.0,2.2,35,0.00,,,0.00,WUHU216HW,2013-06-24 06:48:00,
2013-06-24 00:53:00,58.0,30.2,31.67,SSW,203,0.2,2.2,35,0.00,,,0.00,WUHU216HW,2013-06-24 06:53:00,
2013-06-24 00:59:00,57.8,29.4,31.67,WNW,293,0.0,2.7,34,0.00,,,0.00,WUHU216HW,2013-06-24 06:59:00,
2013-06-24 01:04:00,57.8,30.8,31.67,WSW,248,0.0,2.7,36,0.00,,,0.00,WUHU216HW,2013-06-24 07:04:00,
2013-06-24 01:09:00,57.6,30.6,31.67,SW,225,0.0,2.0,36,0.00,,,0.00,WUHU216HW,2013-06-24 07:09:00,
2013-06-24 01:14:00,57.8,30.8,31.67,SSW,203,0.4,2.5,36,0.00,,,0.00,WUHU216HW,2013-06-24 07:14:00,
2013-06-24 01:19:00,57.6,30.6,31.67,SW,225,0.2,2.5,36,0.00,,,0.00,WUHU216HW,2013-06-24 07:19:00,
2013-06-24 01:24:00,57.6,30.6,31.67,North,0,1.1,3.4,36,0.00,,,0.00,WUHU216HW,2013-06-24 07:24:00,
2013-06-24 01:29:00,57.4,30.5,31.67,SW,225,1.6,3.4,36,0.00,,,0.00,WUHU216HW,2013-06-24 07:29:00,
2013-06-24 01:34:00,57.2,30.3,31.67,WSW,248,1.8,3.1,36,0.00,,,0.00,WUHU216HW,2013-06-24 07:34:00,
2013-06-24 01:39:00,57.1,30.2,31.66,SW,225,1.8,2.2,36,0.00,,,0.00,WUHU216HW,2013-06-24 07:39:00,
2013-06-24 01:45:00,57.1,28.7,31.66,West,270,0.7,1.8,34,0.00,,,0.00,WUHU216HW,2013-06-24 07:45:00,
2013-06-24 01:50:00,57.2,29.6,31.66,West,270,0.0,1.8,35,0.00,,,0.00,WUHU216HW,2013-06-24 07:50:00,
2013-06-24 01:55:00,57.4,29.8,31.67,SW,225,0.9,0.9,35,0.00,,,0.00,WUHU216HW,2013-06-24 07:55:00,
2013-06-24 02:00:00,58.0,28.2,31.66,SSW,203,2.9,3.6,32,0.00,,,0.00,WUHU216HW,2013-06-24 08:00:00,
2013-06-24 02:05:00,58.9,28.3,31.66,SSW,203,2.2,3.6,31,0.00,,,0.00,WUHU216HW,2013-06-24 08:05:00,
2013-06-24 02:10:00,59.8,29.0,31.66,WSW,248,2.0,2.9,31,0.00,,,0.00,WUHU216HW,2013-06-24 08:10:00,
2013-06-24 02:15:00,60.5,29.6,31.66,WSW,248,0.7,2.5,31,0.00,,,0.00,WUHU216HW,2013-06-24 08:15:00,
2013-06-24 02:21:00,60.5,30.3,31.66,NE,45,0.0,1.8,32,0.00,,,0.00,WUHU216HW,2013-06-24 08:21:00,
2013-06-24 02:26:00,59.6,29.6,31.66,SSE,158,0.7,1.1,32,0.00,,,0.00,WUHU216HW,2013-06-24 08:26:00,
2013-06-24 02:31:00,58.9,29.7,31.66,WSW,248,0.0,2.7,33,0.00,,,0.00,WUHU216HW,2013-06-24 08:31:00,
2013-06-24 02:36:00,58.7,29.5,31.66,SW,225,0.7,2.7,33,0.00,,,0.00,WUHU216HW,2013-06-24 08:36:00,
2013-06-24 02:41:00,58.3,29.2,31.66,SW,225,2.2,3.4,33,0.00,,,0.00,WUHU216HW,2013-06-24 08:41:00,
2013-06-24 02:46:00,58.9,27.5,31.66,SSW,203,1.6,3.4,30,0.00,,,0.00,WUHU216HW,2013-06-24 08:46:00,
2013-06-24 02:51:00,59.8,28.3,31.66,SSW,203,1.1,4.3,30,0.00,,,0.00,WUHU216HW,2013-06-24 08:51:00,
2013-06-24 02:56:00,60.7,27.1,31.66,SW,225,1.1,4.3,28,0.00,,,0.00,WUHU216HW,2013-06-24 08:56:00,
2013-06-24 03:02:00,61.2,28.5,31.66,WSW,248,2.0,2.9,29,0.00,,,0.00,WUHU216HW,2013-06-24 09:02:00,
2013-06-24 03:07:00,61.2,27.5,31.66,SSW,203,1.3,3.1,28,0.00,,,0.00,WUHU216HW,2013-06-24 09:07:00,
2013-06-24 03:12:00,61.6,26.9,31.66,SW,225,1.1,3.4,27,0.00,,,0.00,WUHU216HW,2013-06-24 09:12:00,
2013-06-24 03:17:00,61.7,27.1,31.66,WSW,248,3.4,3.4,27,0.00,,,0.00,WUHU216HW,2013-06-24 09:17:00,
2013-06-24 03:22:00,61.6,27.9,31.65,SSW,203,0.4,3.4,28,0.00,,,0.00,WUHU216HW,2013-06-24 09:22:00,
2013-06-24 03:27:00,61.7,27.1,31.66,SW,225,1.8,2.7,27,0.00,,,0.00,WUHU216HW,2013-06-24 09:27:00,
2013-06-24 03:32:00,61.9,27.3,31.65,WSW,248,1.3,2.9,27,0.00,,,0.00,WUHU216HW,2013-06-24 09:32:00,
2013-06-24 03:37:00,61.9,27.3,31.65,SSW,203,1.6,2.9,27,0.00,,,0.00,WUHU216HW,2013-06-24 09:37:00,
2013-06-24 03:42:00,62.3,25.7,31.65,SSW,203,0.9,2.5,25,0.00,,,0.00,WUHU216HW,2013-06-24 09:42:00,
2013-06-24 03:47:00,62.5,25.7,31.65,SSW,203,1.1,4.0,25,0.00,,,0.00,WUHU216HW,2013-06-24 09:47:00,
2013-06-24 03:52:00,62.8,26.1,31.65,SW,225,3.8,4.0,25,0.00,,,0.00,WUHU216HW,2013-06-24 09:52:00,
2013-06-24 03:57:00,63.4,26.6,31.65,WSW,248,1.3,3.8,25,0.00,,,0.00,WUHU216HW,2013-06-24 09:57:00,
2013-06-24 04:03:00,63.5,25.8,31.65,West,270,3.4,4.3,24,0.00,,,0.00,WUHU216HW,2013-06-24 10:03:00,
2013-06-24 04:08:00,63.9,26.0,31.65,SW,225,2.5,6.3,24,0.00,,,0.00,WUHU216HW,2013-06-24 10:08:00,
2013-06-24 04:13:00,63.9,26.0,31.65,SSW,203,0.7,6.3,24,0.00,,,0.00,WUHU216HW,2013-06-24 10:13:00,
2013-06-24 04:18:00,63.9,26.0,31.65,SSW,203,5.1,5.1,24,0.00,,,0.00,WUHU216HW,2013-06-24 10:18:00,
2013-06-24 04:23:00,64.1,26.2,31.65,SW,225,0.7,5.6,24,0.00,,,0.00,WUHU216HW,2013-06-24 10:23:00,
2013-06-24 04:28:00,64.3,26.3,31.65,SE,135,1.1,6.7,24,0.00,,,0.00,WUHU216HW,2013-06-24 10:28:00,
2013-06-24 04:33:00,64.3,25.3,31.65,SSW,203,1.3,6.7,23,0.00,,,0.00,WUHU216HW,2013-06-24 10:33:00,
2013-06-24 04:38:00,64.3,26.3,31.65,SSW,203,1.8,4.5,24,0.00,,,0.00,WUHU216HW,2013-06-24 10:38:00,
2013-06-24 04:43:00,64.1,26.2,31.65,WSW,248,2.5,3.4,24,0.00,,,0.00,WUHU216HW,2013-06-24 10:43:00,
2013-06-24 04:48:00,63.9,26.0,31.65,SW,225,0.4,3.4,24,0.00,,,0.00,WUHU216HW,2013-06-24 10:48:00,
2013-06-24 04:53:00,63.9,26.0,31.65,West,270,0.2,5.8,24,0.00,,,0.00,WUHU216HW,2013-06-24 10:53:00,
2013-06-24 04:58:00,64.1,26.2,31.65,West,270,1.1,5.8,24,0.00,,,0.00,WUHU216HW,2013-06-24 10:58:00,
2013-06-24 05:03:00,63.5,26.7,31.65,SSW,203,0.4,2.5,25,0.00,,,0.00,WUHU216HW,2013-06-24 11:03:00,
2013-06-24 05:08:00,63.4,26.6,31.65,WSW,248,1.6,2.5,25,0.00,,,0.00,WUHU216HW,2013-06-24 11:08:00,
2013-06-24 05:13:00,63.2,26.4,31.66,SSE,158,2.5,2.7,25,0.00,,,0.00,WUHU216HW,2013-06-24 11:13:00,
2013-06-24 05:19:00,63.2,26.4,31.66,SSE,158,1.3,4.9,25,0.00,,,0.00,WUHU216HW,2013-06-24 11:19:00,
2013-06-24 05:24:00,63.2,26.4,31.66,West,270,1.3,4.9,25,0.00,,,0.00,WUHU216HW,2013-06-24 11:24:00,
2013-06-24 05:29:00,63.0,27.2,31.65,SW,225,0.4,4.0,26,0.00,,,0.00,WUHU216HW,2013-06-24 11:29:00,
2013-06-24 05:34:00,63.0,26.2,31.66,WSW,248,0.2,4.5,25,0.00,,,0.00,WUHU216HW,2013-06-24 11:34:00,
2013-06-24 05:39:00,62.8,27.1,31.66,NNW,338,0.7,4.5,26,0.00,,,0.00,WUHU216HW,2013-06-24 11:39:00,
2013-06-24 05:44:00,62.8,26.1,31.66,West,270,0.9,2.5,25,0.00,,,0.00,WUHU216HW,2013-06-24 11:44:00,
2013-06-24 05:50:00,62.5,25.7,31.66,WNW,293,0.0,2.5,25,0.00,,,0.00,WUHU216HW,2013-06-24 11:50:00,
2013-06-24 05:55:00,62.3,25.7,31.66,SW,225,0.4,2.0,25,0.00,,,0.00,WUHU216HW,2013-06-24 11:55:00,
2013-06-24 06:00:00,62.3,25.7,31.66,SSW,203,1.6,4.5,25,0.00,,,0.00,WUHU216HW,2013-06-24 12:00:00,
2013-06-24 06:05:00,62.5,25.7,31.66,WNW,293,1.8,4.5,25,0.00,,,0.00,WUHU216HW,2013-06-24 12:05:00,
2013-06-24 06:10:00,62.5,25.7,31.66,SW,225,0.4,2.9,25,0.00,,,0.00,WUHU216HW,2013-06-24 12:10:00,
2013-06-24 06:16:00,62.3,26.6,31.66,WNW,293,1.8,2.5,26,0.00,,,0.00,WUHU216HW,2013-06-24 12:16:00,
2013-06-24 06:21:00,62.1,27.4,31.66,SSW,203,0.0,2.0,27,0.00,,,0.00,WUHU216HW,2013-06-24 12:21:00,
2013-06-24 06:26:00,61.6,26.9,31.66,SW,225,1.1,2.5,27,0.00,,,0.00,WUHU216HW,2013-06-24 12:26:00,
2013-06-24 06:31:00,61.4,27.7,31.66,WSW,248,1.1,2.5,28,0.00,,,0.00,WUHU216HW,2013-06-24 12:31:00,
2013-06-24 06:36:00,61.4,28.7,31.66,SW,225,1.8,2.2,29,0.00,,,0.00,WUHU216HW,2013-06-24 12:36:00,
2013-06-24 06:41:00,61.2,29.5,31.66,SW,225,1.8,2.5,30,0.00,,,0.00,WUHU216HW,2013-06-24 12:41:00,
2013-06-24 06:46:00,60.5,28.9,31.66,SW,225,2.5,2.5,30,0.00,,,0.00,WUHU216HW,2013-06-24 12:46:00,
2013-06-24 06:52:00,60.1,30.0,31.66,WSW,248,1.3,2.5,32,0.00,,,0.00,WUHU216HW,2013-06-24 12:52:00,
2013-06-24 06:57:00,59.8,30.4,31.66,West,270,1.8,2.2,33,0.00,,,0.00,WUHU216HW,2013-06-24 12:57:00,
2013-06-24 07:02:00,59.0,30.5,31.66,West,270,1.8,2.2,34,0.00,,,0.00,WUHU216HW,2013-06-24 13:02:00,
2013-06-24 07:07:00,58.3,31.3,31.66,SW,225,1.8,2.7,36,0.00,,,0.00,WUHU216HW,2013-06-24 13:07:00,
2013-06-24 07:12:00,58.0,31.7,31.66,SW,225,2.2,2.7,37,0.00,,,0.00,WUHU216HW,2013-06-24 13:12:00,
2013-06-24 07:17:00,57.8,31.5,31.66,WSW,248,1.8,2.5,37,0.00,,,0.00,WUHU216HW,2013-06-24 13:17:00,
2013-06-24 07:22:00,58.1,31.9,31.66,WSW,248,1.8,2.5,37,0.00,,,0.00,WUHU216HW,2013-06-24 13:22:00,
2013-06-24 07:27:00,59.4,32.2,31.66,WSW,248,0.7,2.5,36,0.00,,,0.00,WUHU216HW,2013-06-24 13:27:00,
2013-06-24 07:32:00,60.8,31.3,31.66,West,270,0.4,2.5,33,0.00,,,0.00,WUHU216HW,2013-06-24 13:32:00,
2013-06-24 07:37:00,62.1,31.8,31.66,West,270,0.0,1.8,32,0.00,,,0.00,WUHU216HW,2013-06-24 13:37:00,
2013-06-24 07:42:00,63.2,32.7,31.66,West,270,0.0,0.4,32,0.00,,,0.00,WUHU216HW,2013-06-24 13:42:00,
2013-06-24 07:47:00,64.1,34.9,31.67,NE,45,0.9,1.1,34,0.00,,,0.00,WUHU216HW,2013-06-24 13:47:00,
2013-06-24 07:52:00,64.3,35.8,31.67,ENE,68,2.0,2.5,35,0.00,,,0.00,WUHU216HW,2013-06-24 13:52:00,
2013-06-24 07:57:00,64.6,35.5,31.67,East,90,1.1,2.5,34,0.00,,,0.00,WUHU216HW,2013-06-24 13:57:00,
2013-06-24 08:02:00,64.4,34.6,31.67,East,90,1.1,2.0,33,0.00,,,0.00,WUHU216HW,2013-06-24 14:02:00,
2013-06-24 08:08:00,64.1,34.2,31.67,ENE,68,0.7,2.0,33,0.00,,,0.00,WUHU216HW,2013-06-24 14:08:00,
2013-06-24 08:13:00,63.7,34.7,31.67,ESE,113,0.4,1.8,34,0.00,,,0.00,WUHU216HW,2013-06-24 14:13:00,
2013-06-24 08:18:00,64.1,34.2,31.68,ENE,68,2.9,2.9,33,0.00,,,0.00,WUHU216HW,2013-06-24 14:18:00,
2013-06-24 08:23:00,64.8,34.9,31.67,NE,45,2.5,2.9,33,0.00,,,0.00,WUHU216HW,2013-06-24 14:23:00,
2013-06-24 08:28:00,65.5,35.6,31.67,East,90,1.8,2.9,33,0.00,,,0.00,WUHU216HW,2013-06-24 14:28:00,
2013-06-24 08:33:00,66.4,37.1,31.67,ENE,68,2.5,2.7,34,0.00,,,0.00,WUHU216HW,2013-06-24 14:33:00,
2013-06-24 08:38:00,67.0,36.8,31.68,ENE,68,0.4,3.4,33,0.00,,,0.00,WUHU216HW,2013-06-24 14:38:00,
2013-06-24 08:44:00,67.3,37.1,31.68,East,90,0.0,3.6,33,0.00,,,0.00,WUHU216HW,2013-06-24 14:44:00,
2013-06-24 08:49:00,67.7,36.6,31.68,NE,45,4.7,5.1,32,0.00,,,0.00,WUHU216HW,2013-06-24 14:49:00,
2013-06-24 08:54:00,68.0,38.4,31.68,ENE,68,4.0,5.1,34,0.00,,,0.00,WUHU216HW,2013-06-24 14:54:00,
2013-06-24 08:59:00,68.6,36.7,31.68,NE,45,0.0,4.0,31,0.00,,,0.00,WUHU216HW,2013-06-24 14:59:00,
2013-06-24 09:04:00,68.8,29.2,31.68,SW,225,9.8,9.8,23,0.00,,,0.00,WUHU216HW,2013-06-24 15:04:00,
2013-06-24 09:09:00,68.4,29.8,31.68,SW,225,5.1,9.8,24,0.00,,,0.00,WUHU216HW,2013-06-24 15:09:00,
2013-06-24 09:14:00,68.8,32.1,31.68,ENE,68,0.4,6.9,26,0.00,,,0.00,WUHU216HW,2013-06-24 15:14:00,
2013-06-24 09:20:00,69.3,29.6,31.68,SW,225,5.6,5.6,23,0.00,,,0.00,WUHU216HW,2013-06-24 15:20:00,
2013-06-24 09:25:00,69.3,31.6,31.68,West,270,2.9,5.6,25,0.00,,,0.00,WUHU216HW,2013-06-24 15:25:00,
2013-06-24 09:30:00,69.3,32.6,31.68,East,90,2.7,5.6,26,0.00,,,0.00,WUHU216HW,2013-06-24 15:30:00,
2013-06-24 09:35:00,69.5,30.7,31.69,SW,225,4.3,4.9,24,0.00,,,0.00,WUHU216HW,2013-06-24 15:35:00,
2013-06-24 09:40:00,69.5,30.7,31.69,WSW,248,0.0,7.2,24,0.00,,,0.00,WUHU216HW,2013-06-24 15:40:00,
2013-06-24 09:45:00,69.3,29.6,31.69,ENE,68,1.1,7.2,23,0.00,,,0.00,WUHU216HW,2013-06-24 15:45:00,
2013-06-24 09:50:00,69.3,31.6,31.68,WNW,293,6.3,6.5,25,0.00,,,0.00,WUHU216HW,2013-06-24 15:50:00,
2013-06-24 09:55:00,69.1,32.4,31.69,SE,135,0.7,7.6,26,0.00,,,0.00,WUHU216HW,2013-06-24 15:55:00,
2013-06-24 10:00:00,69.5,29.7,31.69,WSW,248,6.9,7.6,23,0.00,,,0.00,WUHU216HW,2013-06-24 16:00:00,
2013-06-24 10:06:00,69.1,29.4,31.69,SW,225,3.4,11.6,23,0.00,,,0.00,WUHU216HW,2013-06-24 16:06:00,
2013-06-24 10:11:00,69.5,32.8,31.68,SW,225,3.1,11.6,26,0.00,,,0.00,WUHU216HW,2013-06-24 16:11:00,
2013-06-24 10:16:00,69.8,30.1,31.68,SW,225,6.3,6.3,23,0.00,,,0.00,WUHU216HW,2013-06-24 16:16:00,
2013-06-24 10:21:00,69.5,30.7,31.68,SE,135,2.5,6.9,24,0.00,,,0.00,WUHU216HW,2013-06-24 16:21:00,
2013-06-24 10:26:00,69.5,30.7,31.69,SW,225,1.6,6.9,24,0.00,,,0.00,WUHU216HW,2013-06-24 16:26:00,
2013-06-24 10:32:00,69.8,32.0,31.68,SSE,158,2.9,6.9,25,0.00,,,0.00,WUHU216HW,2013-06-24 16:32:00,
2013-06-24 10:37:00,70.4,33.5,31.68,NW,315,0.4,6.9,26,0.00,,,0.00,WUHU216HW,2013-06-24 16:37:00,
2013-06-24 10:42:00,70.9,32.0,31.69,West,270,2.5,6.0,24,0.00,,,0.00,WUHU216HW,2013-06-24 16:42:00,
2013-06-24 10:47:00,70.9,31.0,31.69,West,270,2.0,8.1,23,0.00,,,0.00,WUHU216HW,2013-06-24 16:47:00,
2013-06-24 10:52:00,70.9,34.0,31.69,NNW,338,2.0,8.1,26,0.00,,,0.00,WUHU216HW,2013-06-24 16:52:00,
2013-06-24 10:57:00,71.6,31.5,31.69,SW,225,2.2,4.3,23,0.00,,,0.00,WUHU216HW,2013-06-24 16:57:00,
2013-06-24 11:02:00,72.0,33.8,31.69,NE,45,1.6,4.3,25,0.00,,,0.00,WUHU216HW,2013-06-24 17:02:00,
2013-06-24 11:07:00,72.2,34.0,31.69,NNW,338,0.7,4.3,25,0.00,,,0.00,WUHU216HW,2013-06-24 17:07:00,
2013-06-24 11:13:00,72.2,34.0,31.69,North,0,1.1,4.9,25,0.00,,,0.00,WUHU216HW,2013-06-24 17:13:00,
2013-06-24 11:18:00,71.6,33.6,31.69,WSW,248,4.0,6.3,25,0.00,,,0.00,WUHU216HW,2013-06-24 17:18:00,
2013-06-24 11:23:00,71.1,33.1,31.70,NNW,338,0.4,7.6,25,0.00,,,0.00,WUHU216HW,2013-06-24 17:23:00,
2013-06-24 11:28:00,70.9,32.9,31.69,NE,45,1.3,7.6,25,0.00,,,0.00,WUHU216HW,2013-06-24 17:28:00,
2013-06-24 11:33:00,71.1,33.1,31.69,SE,135,6.3,6.7,25,0.00,,,0.00,WUHU216HW,2013-06-24 17:33:00,
2013-06-24 11:39:00,71.1,34.1,31.69,ENE,68,3.6,6.3,26,0.00,,,0.00,WUHU216HW,2013-06-24 17:39:00,
2013-06-24 11:44:00,71.1,34.1,31.69,ESE,113,1.6,4.7,26,0.00,,,0.00,WUHU216HW,2013-06-24 17:44:00,
2013-06-24 11:49:00,71.5,33.4,31.69,SSW,203,3.8,3.8,25,0.00,,,0.00,WUHU216HW,2013-06-24 17:49:00,
2013-06-24 11:54:00,71.3,34.3,31.69,WNW,293,0.9,5.4,26,0.00,,,0.00,WUHU216HW,2013-06-24 17:54:00,
2013-06-24 12:00:00,71.5,36.5,31.69,West,270,2.5,5.4,28,0.00,,,0.00,WUHU216HW,2013-06-24 18:00:00,
2013-06-24 12:05:00,71.8,34.7,31.69,NNW,338,2.2,6.3,26,0.00,,,0.00,WUHU216HW,2013-06-24 18:05:00,
2013-06-24 12:10:00,72.0,34.9,31.69,SW,225,5.4,6.3,26,0.00,,,0.00,WUHU216HW,2013-06-24 18:10:00,
2013-06-24 12:15:00,71.6,33.6,31.69,SE,135,2.5,5.6,25,0.00,,,0.00,WUHU216HW,2013-06-24 18:15:00,
2013-06-24 12:20:00,71.3,33.3,31.69,SSW,203,9.2,9.2,25,0.00,,,0.00,WUHU216HW,2013-06-24 18:20:00,
2013-06-24 12:25:00,70.9,36.0,31.69,WSW,248,3.6,9.2,28,0.00,,,0.00,WUHU216HW,2013-06-24 18:25:00,
2013-06-24 12:30:00,70.4,34.6,31.69,NNE,23,1.1,4.7,27,0.00,,,0.00,WUHU216HW,2013-06-24 18:30:00,
2013-06-24 12:35:00,70.2,35.4,31.69,SE,135,0.7,4.7,28,0.00,,,0.00,WUHU216HW,2013-06-24 18:35:00,
2013-06-24 12:40:00,70.0,33.2,31.69,SW,225,3.4,5.1,26,0.00,,,0.00,WUHU216HW,2013-06-24 18:40:00,
2013-06-24 12:45:00,69.7,31.9,31.69,SW,225,2.5,5.1,25,0.00,,,0.00,WUHU216HW,2013-06-24 18:45:00,
2013-06-24 12:51:00,69.5,33.8,31.69,ENE,68,1.8,4.5,27,0.00,,,0.00,WUHU216HW,2013-06-24 18:51:00,
2013-06-24 12:56:00,69.5,34.7,31.69,NE,45,3.1,3.1,28,0.00,,,0.00,WUHU216HW,2013-06-24 18:56:00,
2013-06-24 13:01:00,69.5,33.8,31.68,ENE,68,0.0,3.1,27,0.00,,,0.00,WUHU216HW,2013-06-24 19:01:00,
2013-06-24 13:06:00,69.7,34.9,31.68,East,90,1.1,3.1,28,0.00,,,0.00,WUHU216HW,2013-06-24 19:06:00,
2013-06-24 13:11:00,69.5,33.8,31.68,SSE,158,0.4,2.5,27,0.00,,,0.00,WUHU216HW,2013-06-24 19:11:00,
2013-06-24 13:16:00,69.7,34.9,31.68,NNE,23,0.0,2.5,28,0.00,,,0.00,WUHU216HW,2013-06-24 19:16:00,
2013-06-24 13:21:00,70.0,32.2,31.68,SSW,203,8.1,8.1,25,0.00,,,0.00,WUHU216HW,2013-06-24 19:21:00,
2013-06-24 13:26:00,70.4,33.5,31.67,ESE,113,1.3,8.1,26,0.00,,,0.00,WUHU216HW,2013-06-24 19:26:00,
2013-06-24 13:31:00,70.9,34.0,31.67,SW,225,1.6,6.3,26,0.00,,,0.00,WUHU216HW,2013-06-24 19:31:00,
2013-06-24 13:36:00,71.5,34.5,31.67,ENE,68,4.5,4.5,26,0.00,,,0.00,WUHU216HW,2013-06-24 19:36:00,
2013-06-24 13:41:00,71.6,34.6,31.67,NE,45,2.0,4.5,26,0.00,,,0.00,WUHU216HW,2013-06-24 19:41:00,
2013-06-24 13:46:00,72.4,37.3,31.67,NNE,23,1.8,4.5,28,0.00,,,0.00,WUHU216HW,2013-06-24 19:46:00,
2013-06-24 13:52:00,72.9,37.7,31.67,SW,225,1.6,2.0,28,0.00,,,0.00,WUHU216HW,2013-06-24 19:52:00,
2013-06-24 13:57:00,72.7,34.5,31.67,WSW,248,0.4,6.3,25,0.00,,,0.00,WUHU216HW,2013-06-24 19:57:00,
2013-06-24 14:02:00,73.1,35.8,31.67,WSW,248,2.9,6.3,26,0.00,,,0.00,WUHU216HW,2013-06-24 20:02:00,
2013-06-24 14:07:00,73.1,34.8,31.67,West,270,3.1,4.9,25,0.00,,,0.00,WUHU216HW,2013-06-24 20:07:00,
2013-06-24 14:12:00,73.4,35.1,31.67,NW,315,1.8,7.2,25,0.00,,,0.00,WUHU216HW,2013-06-24 20:12:00,
2013-06-24 14:17:00,73.4,32.0,31.67,South,180,10.7,10.7,22,0.00,,,0.00,WUHU216HW,2013-06-24 20:17:00,
2013-06-24 14:22:00,73.1,33.8,31.67,SSW,203,1.1,10.7,24,0.00,,,0.00,WUHU216HW,2013-06-24 20:22:00,
2013-06-24 14:28:00,72.9,33.7,31.67,WNW,293,0.4,3.8,24,0.00,,,0.00,WUHU216HW,2013-06-24 20:28:00,
2013-06-24 14:33:00,72.4,32.1,31.68,SW,225,7.4,7.4,23,0.00,,,0.00,WUHU216HW,2013-06-24 20:33:00,
2013-06-24 14:38:00,71.8,32.7,31.68,SSW,203,0.4,7.4,24,0.00,,,0.00,WUHU216HW,2013-06-24 20:38:00,
2013-06-24 14:43:00,71.6,33.6,31.68,SSW,203,2.0,7.4,25,0.00,,,0.00,WUHU216HW,2013-06-24 20:43:00,
2013-06-24 14:48:00,71.5,31.4,31.67,SSW,203,5.1,6.9,23,0.00,,,0.00,WUHU216HW,2013-06-24 20:48:00,
2013-06-24 14:53:00,71.3,33.3,31.67,WNW,293,1.3,7.2,25,0.00,,,0.00,WUHU216HW,2013-06-24 20:53:00,
2013-06-24 14:58:00,71.6,33.6,31.68,NNE,23,0.4,7.2,25,0.00,,,0.00,WUHU216HW,2013-06-24 20:58:00,
2013-06-24 15:03:00,71.6,33.6,31.68,WNW,293,2.2,5.6,25,0.00,,,0.00,WUHU216HW,2013-06-24 21:03:00,
2013-06-24 15:08:00,71.5,31.4,31.68,SW,225,4.5,11.6,23,0.00,,,0.00,WUHU216HW,2013-06-24 21:08:00,
2013-06-24 15:13:00,71.1,33.1,31.68,SE,135,1.1,11.6,25,0.00,,,0.00,WUHU216HW,2013-06-24 21:13:00,
2013-06-24 15:19:00,70.9,34.0,31.68,SW,225,1.1,9.6,26,0.00,,,0.00,WUHU216HW,2013-06-24 21:19:00,
2013-06-24 15:24:00,71.1,33.1,31.68,SSW,203,1.6,5.8,25,0.00,,,0.00,WUHU216HW,2013-06-24 21:24:00,
2013-06-24 15:30:00,71.3,33.3,31.68,NW,315,6.0,6.0,25,0.00,,,0.00,WUHU216HW,2013-06-24 21:30:00,
2013-06-24 15:35:00,71.3,32.2,31.69,South,180,3.6,6.9,24,0.00,,,0.00,WUHU216HW,2013-06-24 21:35:00,
2013-06-24 15:40:00,70.7,31.8,31.69,SSW,203,8.1,9.2,24,0.00,,,0.00,WUHU216HW,2013-06-24 21:40:00,
2013-06-24 15:45:00,70.2,32.3,31.69,West,270,1.3,9.2,25,0.00,,,0.00,WUHU216HW,2013-06-24 21:45:00,
2013-06-24 15:50:00,69.8,33.0,31.69,SSW,203,2.0,8.9,26,0.00,,,0.00,WUHU216HW,2013-06-24 21:50:00,
2013-06-24 15:55:00,69.8,33.0,31.69,SW,225,2.9,7.6,26,0.00,,,0.00,WUHU216HW,2013-06-24 21:55:00,
2013-06-24 16:00:00,70.0,35.2,31.69,SW,225,1.3,10.1,28,0.00,,,0.00,WUHU216HW,2013-06-24 22:00:00,
2013-06-24 16:05:00,70.2,35.4,31.70,South,180,1.1,10.1,28,0.00,,,0.00,WUHU216HW,2013-06-24 22:05:00,
2013-06-24 16:10:00,70.2,33.4,31.70,NE,45,4.3,6.3,26,0.00,,,0.00,WUHU216HW,2013-06-24 22:10:00,
2013-06-24 16:15:00,69.5,34.7,31.70,NNE,23,1.8,6.3,28,0.00,,,0.00,WUHU216HW,2013-06-24 22:15:00,
2013-06-24 16:20:00,68.6,33.9,31.70,SE,135,0.7,11.2,28,0.00,,,0.00,WUHU216HW,2013-06-24 22:20:00,
2013-06-24 16:26:00,68.0,34.5,31.70,SSE,158,10.5,13.2,29,0.00,,,0.00,WUHU216HW,2013-06-24 22:26:00,
2013-06-24 16:31:00,67.7,35.2,31.70,WNW,293,3.6,13.2,30,0.00,,,0.00,WUHU216HW,2013-06-24 22:31:00,
2013-06-24 16:36:00,67.5,35.0,31.70,SE,135,6.5,8.5,30,0.00,,,0.00,WUHU216HW,2013-06-24 22:36:00,
2013-06-24 16:41:00,67.3,35.7,31.70,SSW,203,0.4,6.5,31,0.00,,,0.00,WUHU216HW,2013-06-24 22:41:00,
2013-06-24 16:46:00,67.0,35.3,31.71,SW,225,0.7,6.5,31,0.00,,,0.00,WUHU216HW,2013-06-24 22:46:00,
2013-06-24 16:51:00,67.0,35.3,31.70,East,90,2.7,5.4,31,0.00,,,0.00,WUHU216HW,2013-06-24 22:51:00,
2013-06-24 16:56:00,67.0,35.3,31.70,ENE,68,0.2,2.7,31,0.00,,,0.00,WUHU216HW,2013-06-24 22:56:00,
2013-06-24 17:01:00,66.8,35.2,31.71,WNW,293,0.7,2.7,31,0.00,,,0.00,WUHU216HW,2013-06-24 23:01:00,
2013-06-24 17:07:00,66.6,35.7,31.70,ENE,68,1.1,2.7,32,0.00,,,0.00,WUHU216HW,2013-06-24 23:07:00,
2013-06-24 17:12:00,66.4,36.4,31.71,SSW,203,2.2,2.2,33,0.00,,,0.00,WUHU216HW,2013-06-24 23:12:00,
2013-06-24 17:17:00,65.9,35.8,31.71,SSE,158,0.4,7.6,33,0.00,,,0.00,WUHU216HW,2013-06-24 23:17:00,
2013-06-24 17:22:00,65.7,35.7,31.71,West,270,2.5,7.8,33,0.00,,,0.00,WUHU216HW,2013-06-24 23:22:00,
2013-06-24 17:27:00,65.3,36.1,31.72,SW,225,1.6,8.5,34,0.00,,,0.00,WUHU216HW,2013-06-24 23:27:00,
2013-06-24 17:32:00,65.2,35.9,31.71,NNE,23,3.1,8.5,34,0.00,,,0.00,WUHU216HW,2013-06-24 23:32:00,
2013-06-24 17:37:00,65.0,34.3,31.71,ESE,113,3.8,8.5,32,0.00,,,0.00,WUHU216HW,2013-06-24 23:37:00,
2013-06-24 17:42:00,65.2,33.8,31.71,SE,135,0.4,8.5,31,0.00,,,0.00,WUHU216HW,2013-06-24 23:42:00,
2013-06-24 17:47:00,65.2,33.8,31.71,SE,135,4.0,8.5,31,0.00,,,0.00,WUHU216HW,2013-06-24 23:47:00,
2013-06-24 17:52:00,65.0,33.6,31.72,WSW,248,2.9,8.5,31,0.00,,,0.00,WUHU216HW,2013-06-24 23:52:00,
2013-06-24 17:57:00,64.8,32.8,31.72,NW,315,2.7,9.6,30,0.00,,,0.00,WUHU216HW,2013-06-24 23:57:00,
2013-06-24 18:02:00,64.8,33.5,31.72,West,270,0.7,9.6,31,0.00,,,0.00,WUHU216HW,2013-06-25 00:02:00,
2013-06-24 18:07:00,64.4,33.1,31.72,South,180,6.3,6.7,31,0.00,,,0.00,WUHU216HW,2013-06-25 00:07:00,
2013-06-24 18:12:00,64.1,32.8,31.72,WSW,248,0.2,7.6,31,0.00,,,0.00,WUHU216HW,2013-06-25 00:12:00,
2013-06-24 18:17:00,63.9,34.1,31.73,SSE,158,2.5,5.6,33,0.00,,,0.00,WUHU216HW,2013-06-25 00:17:00,
2013-06-24 18:22:00,63.4,33.6,31.72,SSW,203,2.5,6.5,33,0.00,,,0.00,WUHU216HW,2013-06-25 00:22:00,
2013-06-24 18:27:00,63.0,33.3,31.72,SSE,158,1.1,9.8,33,0.00,,,0.00,WUHU216HW,2013-06-25 00:27:00,
2013-06-24 18:33:00,62.8,33.1,31.73,SW,225,0.2,9.8,33,0.00,,,0.00,WUHU216HW,2013-06-25 00:33:00,
2013-06-24 18:38:00,62.6,33.7,31.73,West,270,1.1,6.5,34,0.00,,,0.00,WUHU216HW,2013-06-25 00:38:00,
2013-06-24 18:43:00,62.6,33.7,31.73,SSW,203,7.6,7.6,34,0.00,,,0.00,WUHU216HW,2013-06-25 00:43:00,
2013-06-24 18:48:00,62.5,33.5,31.73,South,180,1.8,7.6,34,0.00,,,0.00,WUHU216HW,2013-06-25 00:48:00,
2013-06-24 18:53:00,62.3,34.0,31.73,SE,135,0.7,6.9,35,0.00,,,0.00,WUHU216HW,2013-06-25 00:53:00,
2013-06-24 18:59:00,62.1,34.7,31.73,WSW,248,3.4,5.6,36,0.00,,,0.00,WUHU216HW,2013-06-25 00:59:00,
2013-06-24 19:04:00,62.1,34.7,31.74,SSW,203,3.4,7.4,36,0.00,,,0.00,WUHU216HW,2013-06-25 01:04:00,
2013-06-24 19:09:00,61.6,34.8,31.74,SSW,203,5.8,8.3,37,0.00,,,0.00,WUHU216HW,2013-06-25 01:09:00,
2013-06-24 19:14:00,61.4,34.7,31.74,SSE,158,1.1,8.3,37,0.00,,,0.00,WUHU216HW,2013-06-25 01:14:00,
2013-06-24 19:19:00,61.0,34.4,31.74,SSW,203,4.5,5.4,37,0.00,,,0.00,WUHU216HW,2013-06-25 01:19:00,
2013-06-24 19:24:00,60.7,34.7,31.75,SSW,203,3.6,6.3,38,0.00,,,0.00,WUHU216HW,2013-06-25 01:24:00,
2013-06-24 19:29:00,60.5,35.3,31.75,SW,225,0.7,6.3,39,0.00,,,0.00,WUHU216HW,2013-06-25 01:29:00,
2013-06-24 19:35:00,60.3,35.2,31.75,SSW,203,0.4,4.0,39,0.00,,,0.00,WUHU216HW,2013-06-25 01:35:00,
2013-06-24 19:40:00,59.9,35.6,31.76,WSW,248,0.2,1.1,40,0.00,,,0.00,WUHU216HW,2013-06-25 01:40:00,
2013-06-24 19:45:00,59.6,37.5,31.76,SSW,203,1.6,1.6,44,0.00,,,0.00,WUHU216HW,2013-06-25 01:45:00,
2013-06-24 19:51:00,59.2,37.2,31.76,South,180,0.0,1.6,44,0.00,,,0.00,WUHU216HW,2013-06-25 01:51:00,
2013-06-24 19:56:00,58.7,36.7,31.76,WSW,248,0.0,2.0,44,0.00,,,0.00,WUHU216HW,2013-06-25 01:56:00,
2013-06-24 20:01:00,58.5,37.7,31.76,WSW,248,0.0,2.0,46,0.00,,,0.00,WUHU216HW,2013-06-25 02:01:00,
2013-06-24 20:06:00,58.0,37.8,31.76,WSW,248,0.0,0.4,47,0.00,,,0.00,WUHU216HW,2013-06-25 02:06:00,
2013-06-24 20:11:00,58.0,38.3,31.76,WSW,248,0.0,0.4,48,0.00,,,0.00,WUHU216HW,2013-06-25 02:11:00,
2013-06-24 20:16:00,57.6,38.1,31.75,NE,45,0.9,1.3,48,0.00,,,0.00,WUHU216HW,2013-06-25 02:16:00,
2013-06-24 20:21:00,57.1,40.2,31.76,WSW,248,1.1,1.8,53,0.00,,,0.00,WUHU216HW,2013-06-25 02:21:00,
2013-06-24 20:26:00,56.7,39.8,31.76,WSW,248,0.0,1.8,53,0.00,,,0.00,WUHU216HW,2013-06-25 02:26:00,
2013-06-24 20:31:00,56.2,39.3,31.75,WSW,248,0.0,1.1,53,0.00,,,0.00,WUHU216HW,2013-06-25 02:31:00,
2013-06-24 20:36:00,55.8,38.9,31.76,SSE,158,0.0,1.1,53,0.00,,,0.00,WUHU216HW,2013-06-25 02:36:00,
2013-06-24 20:42:00,55.6,39.6,31.76,SSW,203,0.0,1.1,55,0.00,,,0.00,WUHU216HW,2013-06-25 02:42:00,
2013-06-24 20:47:00,55.4,39.4,31.76,WSW,248,1.8,1.8,55,0.00,,,0.00,WUHU216HW,2013-06-25 02:47:00,
2013-06-24 20:52:00,55.3,38.8,31.76,WSW,248,1.3,2.5,54,0.00,,,0.00,WUHU216HW,2013-06-25 02:52:00,
2013-06-24 20:57:00,55.3,38.4,31.76,WSW,248,0.0,2.5,53,0.00,,,0.00,WUHU216HW,2013-06-25 02:57:00,
2013-06-24 21:02:00,55.1,38.2,31.76,South,180,0.0,1.3,53,0.00,,,0.00,WUHU216HW,2013-06-25 03:02:00,
2013-06-24 21:07:00,55.1,38.2,31.76,South,180,0.0,1.8,53,0.00,,,0.00,WUHU216HW,2013-06-25 03:07:00,
2013-06-24 21:12:00,55.1,38.6,31.76,SSW,203,0.9,1.8,54,0.00,,,0.00,WUHU216HW,2013-06-25 03:12:00,
2013-06-24 21:17:00,55.1,38.6,31.76,SSW,203,1.1,1.1,54,0.00,,,0.00,WUHU216HW,2013-06-25 03:17:00,
2013-06-24 21:22:00,54.9,39.0,31.77,SSW,203,0.0,1.1,55,0.00,,,0.00,WUHU216HW,2013-06-25 03:22:00,
2013-06-24 21:28:00,54.7,40.7,31.77,West,270,0.9,1.3,59,0.00,,,0.00,WUHU216HW,2013-06-25 03:28:00,
2013-06-24 21:33:00,54.2,41.9,31.77,SW,225,1.1,1.3,63,0.00,,,0.00,WUHU216HW,2013-06-25 03:33:00,
2013-06-24 21:38:00,53.6,41.8,31.77,SSW,203,1.6,1.8,64,0.00,,,0.00,WUHU216HW,2013-06-25 03:38:00,
2013-06-24 21:43:00,53.3,41.8,31.78,WSW,248,0.9,1.8,65,0.00,,,0.00,WUHU216HW,2013-06-25 03:43:00,
2013-06-24 21:49:00,53.1,42.4,31.77,SSW,203,1.1,1.6,67,0.00,,,0.00,WUHU216HW,2013-06-25 03:49:00,
2013-06-24 21:54:00,52.7,41.7,31.77,SW,225,0.7,1.8,66,0.00,,,0.00,WUHU216HW,2013-06-25 03:54:00,
2013-06-24 21:59:00,52.7,40.9,31.78,WSW,248,0.2,1.8,64,0.00,,,0.00,WUHU216HW,2013-06-25 03:59:00,
2013-06-24 22:01:00,52.7,40.9,31.78,West,270,0.2,1.8,64,0.00,,,0.00,WUHU216HW,2013-06-25 04:01:00,
2013-06-24 22:06:00,52.6,40.7,31.78,West,270,0.4,0.9,64,0.00,,,0.00,WUHU216HW,2013-06-25 04:06:00,
2013-06-24 22:11:00,52.7,40.9,31.78,West,270,0.0,1.1,64,0.00,,,0.00,WUHU216HW,2013-06-25 04:11:00,
2013-06-24 22:16:00,52.7,40.9,31.78,West,270,0.0,1.1,64,0.00,,,0.00,WUHU216HW,2013-06-25 04:16:00,
2013-06-24 22:21:00,52.7,40.9,31.78,WSW,248,0.0,1.8,64,0.00,,,0.00,WUHU216HW,2013-06-25 04:21:00,
2013-06-24 22:26:00,52.7,41.7,31.78,WSW,248,0.7,1.8,66,0.00,,,0.00,WUHU216HW,2013-06-25 04:26:00,
2013-06-24 22:31:00,52.6,41.1,31.78,WSW,248,0.9,1.6,65,0.00,,,0.00,WUHU216HW,2013-06-25 04:31:00,
2013-06-24 22:36:00,52.6,40.7,31.78,WSW,248,0.0,1.6,64,0.00,,,0.00,WUHU216HW,2013-06-25 04:36:00,
2013-06-24 22:41:00,52.6,40.7,31.78,WSW,248,0.0,0.9,64,0.00,,,0.00,WUHU216HW,2013-06-25 04:41:00,
2013-06-24 22:46:00,52.6,41.1,31.78,WSW,248,0.4,1.1,65,0.00,,,0.00,WUHU216HW,2013-06-25 04:46:00,
2013-06-24 22:51:00,52.6,42.0,31.78,West,270,1.1,1.6,67,0.00,,,0.00,WUHU216HW,2013-06-25 04:51:00,
2013-06-24 22:56:00,52.6,41.1,31.78,West,270,0.0,1.6,65,0.00,,,0.00,WUHU216HW,2013-06-25 04:56:00,
2013-06-24 23:01:00,52.6,42.8,31.78,WSW,248,1.1,1.6,69,0.00,,,0.00,WUHU216HW,2013-06-25 05:01:00,
2013-06-24 23:06:00,52.6,42.0,31.78,WSW,248,0.0,1.6,67,0.00,,,0.00,WUHU216HW,2013-06-25 05:06:00,
2013-06-24 23:11:00,52.4,41.3,31.78,WSW,248,1.3,1.3,66,0.00,,,0.00,WUHU216HW,2013-06-25 05:11:00,
2013-06-24 23:16:00,52.4,41.3,31.78,West,270,0.2,1.3,66,0.00,,,0.00,WUHU216HW,2013-06-25 05:16:00,
2013-06-24 23:21:00,52.4,41.8,31.78,WNW,293,0.0,1.3,67,0.00,,,0.00,WUHU216HW,2013-06-25 05:21:00,
2013-06-24 23:26:00,52.4,41.3,31.78,WSW,248,0.0,1.6,66,0.00,,,0.00,WUHU216HW,2013-06-25 05:26:00,
2013-06-24 23:31:00,52.2,41.1,31.78,NW,315,0.0,1.6,66,0.00,,,0.00,WUHU216HW,2013-06-25 05:31:00,
2013-06-24 23:36:00,52.2,41.1,31.78,ENE,68,0.4,1.8,66,0.00,,,0.00,WUHU216HW,2013-06-25 05:36:00,
2013-06-24 23:41:00,52.2,41.6,31.78,SSW,203,0.2,1.8,67,0.00,,,0.00,WUHU216HW,2013-06-25 05:41:00,
2013-06-24 23:46:00,52.2,41.6,31.78,SSW,203,0.7,1.1,67,0.00,,,0.00,WUHU216HW,2013-06-25 05:46:00,
2013-06-24 23:51:00,52.2,41.6,31.78,SSW,203,0.7,1.1,67,0.00,,,0.00,WUHU216HW,2013-06-25 05:51:00,
2013-06-24 23:56:00,52.2,41.1,31.78,SSW,203,0.0,1.1,66,0.00,,,0.00,WUHU216HW,2013-06-25 05:56:00,